sensor_id;sensor_type;location;lat;lon;timestamp;pressure;altitude;pressure_sealevel;temperature;humidity
39491;BME280;25175;50.140;18.990;2023-04-23T20:55:01;97731.06;;;16.12;48.71
39491;BME280;25175;50.140;18.990;2023-04-23T20:58:09;97723.66;;;16.04;48.64
39491;BME280;25175;50.140;18.990;2023-04-23T21:01:18;97725.50;;;16.04;48.21
39491;BME280;25175;50.140;18.990;2023-04-23T21:04:25;97728.94;;;15.99;48.41
39491;BME280;25175;50.140;18.990;2023-04-23T21:07:31;97721.22;;;15.93;48.56
39491;BME280;25175;50.140;18.990;2023-04-23T21:10:46;97711.66;;;15.82;48.64
39491;BME280;25175;50.140;18.990;2023-04-23T21:14:16;97723.56;;;15.75;49.18
39491;BME280;25175;50.140;18.990;2023-04-23T21:17:22;97715.28;;;15.61;49.34
39491;BME280;25175;50.140;18.990;2023-04-23T21:20:30;97716.81;;;15.52;49.70
39491;BME280;25175;50.140;18.990;2023-04-23T21:31:12;97696.31;;;15.23;50.07
39491;BME280;25175;50.140;18.990;2023-04-23T21:34:30;97707.16;;;15.26;49.95
39491;BME280;25175;50.140;18.990;2023-04-23T21:37:45;97701.31;;;15.19;49.98
39491;BME280;25175;50.140;18.990;2023-04-23T21:40:51;97701.84;;;15.21;49.83
39491;BME280;25175;50.140;18.990;2023-04-23T21:44:17;97688.34;;;15.13;49.60
39491;BME280;25175;50.140;18.990;2023-04-23T21:47:35;97700.53;;;15.23;49.53
39491;BME280;25175;50.140;18.990;2023-04-23T21:50:49;97700.31;;;15.25;49.55
39491;BME280;25175;50.140;18.990;2023-04-23T21:54:04;97696.31;;;15.23;49.40
39491;BME280;25175;50.140;18.990;2023-04-23T21:57:09;97691.81;;;15.18;49.34
39491;BME280;25175;50.140;18.990;2023-04-23T22:00:17;97686.75;;;15.12;49.46
39491;BME280;25175;50.140;18.990;2023-04-23T22:03:26;97692.25;;;15.05;49.84
39491;BME280;25175;50.140;18.990;2023-04-23T22:06:34;97684.28;;;15.00;49.98
39491;BME280;25175;50.140;18.990;2023-04-23T22:09:39;97690.63;;;14.99;50.01
39491;BME280;25175;50.140;18.990;2023-04-23T22:12:47;97697.22;;;14.97;50.08
39491;BME280;25175;50.140;18.990;2023-04-23T22:15:53;97687.41;;;14.92;49.76
39491;BME280;25175;50.140;18.990;2023-04-23T22:19:02;97690.03;;;14.87;49.82
39491;BME280;25175;50.140;18.990;2023-04-23T22:22:09;97686.03;;;14.85;49.97
39491;BME280;25175;50.140;18.990;2023-04-23T22:25:16;97681.28;;;14.82;50.05
39491;BME280;25175;50.140;18.990;2023-04-23T22:28:23;97410.72;;;13.02;49.91
39491;BME280;25175;50.140;18.990;2023-04-23T22:31:43;97670.56;;;14.67;50.27
39491;BME280;25175;50.140;18.990;2023-04-23T22:35:18;97679.50;;;14.61;50.31
39491;BME280;25175;50.140;18.990;2023-04-23T22:42:11;97678.25;;;14.37;51.10
39491;BME280;25175;50.140;18.990;2023-04-23T22:45:17;97670.81;;;14.29;51.23
39491;BME280;25175;50.140;18.990;2023-04-23T22:48:30;97668.63;;;14.21;51.42
39491;BME280;25175;50.140;18.990;2023-04-23T22:55:37;97662.56;;;13.94;51.60
39491;BME280;25175;50.140;18.990;2023-04-23T22:58:44;97675.03;;;13.82;51.70
39491;BME280;25175;50.140;18.990;2023-04-23T23:05:57;97659.25;;;13.60;52.31
39491;BME280;25175;50.140;18.990;2023-04-23T23:09:06;97653.94;;;13.55;52.21
39491;BME280;25175;50.140;18.990;2023-04-23T23:12:11;97657.31;;;13.51;52.26
39491;BME280;25175;50.140;18.990;2023-04-23T23:15:20;97649.66;;;13.49;52.17
39491;BME280;25175;50.140;18.990;2023-04-23T23:18:35;97655.72;;;13.50;52.17
39491;BME280;25175;50.140;18.990;2023-04-23T23:21:44;97623.13;;;13.34;52.05
39491;BME280;25175;50.140;18.990;2023-04-23T23:24:58;97650.94;;;13.47;52.16
39491;BME280;25175;50.140;18.990;2023-04-23T23:28:12;97634.34;;;13.46;51.99
39491;BME280;25175;50.140;18.990;2023-04-23T23:31:26;97634.59;;;13.45;51.75
39491;BME280;25175;50.140;18.990;2023-04-23T23:34:33;97639.56;;;13.41;51.91
39491;BME280;25175;50.140;18.990;2023-04-23T23:37:44;97614.38;;;13.29;51.88
39491;BME280;25175;50.140;18.990;2023-04-23T23:40:54;97635.88;;;13.42;51.72
39491;BME280;25175;50.140;18.990;2023-04-23T23:44:08;97639.22;;;13.38;51.45
39491;BME280;25175;50.140;18.990;2023-04-23T23:47:15;97636.28;;;13.34;51.68
39491;BME280;25175;50.140;18.990;2023-04-23T23:50:41;97647.34;;;13.31;51.51
39491;BME280;25175;50.140;18.990;2023-04-23T23:53:47;97644.63;;;13.26;51.49
39491;BME280;25175;50.140;18.990;2023-04-23T23:56:58;97638.25;;;13.22;51.25
